Weather reports worldwide

Advertisment
Monte Scuro, Italy (16344): temperature & dewpoint: 17.07.2019 10:00:00 - 23.07.2019 10:00:00 (CEST)Monte Scuro, Italy (16344): wind speed: 17.07.2019 10:00:00 - 23.07.2019 10:00:00 (CEST)Monte Scuro, Italy (16344): wind direction: 17.07.2019 10:00:00 - 23.07.2019 10:00:00 (CEST)Monte Scuro, Italy (16344): visibility: 17.07.2019 10:00:00 - 23.07.2019 10:00:00 (CEST)Monte Scuro, Italy (16344): sunshine duration: 17.07.2019 10:00:00 - 23.07.2019 10:00:00 (CEST)
Date & Time tt [°C] td [°C] ff [km/h] ff [kn] dd vv [km] sd [min]
23.07.2019 10:00:00 - - - - - - -
23.07.2019 09:00:00 17,0 13,0 28 15 NE 20 60
23.07.2019 08:00:00 16,2 15,2 28 15 NE 20 60
23.07.2019 07:00:00 15,4 15,4 22 12 NNE 20 -
23.07.2019 06:00:00 15,0 14,5 21 11 NNE 10 -
23.07.2019 05:00:00 15,0 15,0 24 13 NNE 10 -
23.07.2019 04:00:00 15,6 15,6 13 7 NNE 10 -
23.07.2019 03:00:00 17,0 12,1 0 0 N 10 -
23.07.2019 02:00:00 17,0 13,0 9 5 NNE 10 -
23.07.2019 01:00:00 17,0 11,9 15 8 NNE 10 -
23.07.2019 00:00:00 17,0 13,0 15 8 NNE 10 -
22.07.2019 23:00:00 17,0 12,5 11 6 NNE 10 -
22.07.2019 22:00:00 17,0 17,0 9 5 NNE 10 -
22.07.2019 21:00:00 18,8 18,8 9 5 NNE 20 -
22.07.2019 20:00:00 19,0 19,0 8 4 W 20 60
22.07.2019 19:00:00 20,0 16,4 0 0 N 20 60
22.07.2019 18:00:00 20,0 12,0 11 6 NNE 20 60
22.07.2019 17:00:00 19,0 8,4 21 11 NNE 20 60
22.07.2019 16:00:00 19,0 9,8 22 12 NNE 20 60
22.07.2019 15:00:00 19,2 9,1 22 12 NNE 20 60
22.07.2019 14:00:00 19,0 10,0 22 12 NNE 20 60
22.07.2019 13:00:00 19,0 9,8 26 14 NNE 20 60
22.07.2019 12:00:00 18,4 10,5 26 14 NNE 20 60
22.07.2019 11:00:00 18,0 10,6 28 15 NNE 20 60
22.07.2019 10:00:00 17,2 12,5 29 16 NNE 20 60
22.07.2019 09:00:00 17,0 11,3 28 15 NNE 20 60
22.07.2019 08:00:00 16,4 10,9 24 13 NNE 20 60
22.07.2019 07:00:00 16,0 10,5 18 10 NE 20 36
22.07.2019 06:00:00 14,8 10,6 11 6 NNE 15 -
22.07.2019 05:00:00 15,2 11,4 9 5 NNE 10 -
22.07.2019 04:00:00 16,0 12,0 9 5 NNE 10 -
22.07.2019 03:00:00 16,0 11,8 8 4 NNE 10 -
22.07.2019 02:00:00 16,2 11,2 5 3 NNE 10 -
22.07.2019 01:00:00 16,2 11,8 8 4 NNE 10 -
22.07.2019 00:00:00 16,0 12,9 5 3 NNE 10 -
21.07.2019 23:00:00 16,2 15,4 5 3 ENE 10 -
21.07.2019 22:00:00 16,4 14,9 0 0 N 10 -
21.07.2019 21:00:00 16,4 16,2 5 3 ENE 10 -
21.07.2019 20:00:00 17,4 17,1 4 2 W 15 42
21.07.2019 19:00:00 18,6 18,1 4 2 ENE 15 48
21.07.2019 18:00:00 18,4 14,5 0 0 N 20 12
21.07.2019 17:00:00 19,0 13,4 0 0 N 20 0
21.07.2019 16:00:00 20,2 13,7 5 3 NE 20 24
21.07.2019 15:00:00 21,0 13,4 5 3 WNW 20 48
21.07.2019 14:00:00 20,6 12,3 5 3 NNE 20 60
21.07.2019 13:00:00 20,0 11,2 4 2 ENE 20 60
21.07.2019 12:00:00 19,2 11,8 5 3 ENE 25 60
21.07.2019 11:00:00 18,4 11,7 5 3 ENE 25 60
21.07.2019 10:00:00 17,2 10,8 18 10 NNE 25 60
21.07.2019 09:00:00 17,0 10,2 16 9 NNE 25 60
21.07.2019 08:00:00 17,0 7,4 11 6 W 20 60
21.07.2019 07:00:00 16,4 3,8 9 5 W 20 -
21.07.2019 06:00:00 14,4 5,2 9 5 W 10 -
21.07.2019 05:00:00 14,8 3,6 0 0 N 10 -
21.07.2019 04:00:00 14,8 8,1 15 8 W 10 -
21.07.2019 03:00:00 14,8 9,0 11 6 WNW 10 -
21.07.2019 02:00:00 14,8 10,6 13 7 WNW 10 -
21.07.2019 01:00:00 14,8 12,5 11 6 W 10 -
21.07.2019 00:00:00 14,8 13,8 15 8 W 10 -
20.07.2019 23:00:00 15,2 13,0 8 4 WNW 10 -
20.07.2019 22:00:00 15,4 12,5 0 0 N 10 -
20.07.2019 21:00:00 15,4 12,7 8 4 W 15 -
20.07.2019 20:00:00 17,2 17,2 11 6 WSW 20 48
20.07.2019 19:00:00 18,0 16,9 15 8 W 20 60
20.07.2019 18:00:00 17,8 13,9 15 8 WSW 15 36
20.07.2019 17:00:00 18,0 13,1 13 7 WNW 20 36
20.07.2019 16:00:00 17,0 13,0 18 10 W 20 36
20.07.2019 15:00:00 17,4 13,7 18 10 W 20 18
20.07.2019 14:00:00 17,2 14,8 18 10 W 20 42
20.07.2019 13:00:00 17,2 14,8 21 11 W 20 60
20.07.2019 12:00:00 17,0 15,4 21 11 WSW 25 60
20.07.2019 11:00:00 15,8 13,3 16 9 WSW 25 60
20.07.2019 10:00:00 17,0 11,1 9 5 ESE 20 60
20.07.2019 09:00:00 15,4 10,0 28 15 N 20 60
20.07.2019 08:00:00 15,4 11,6 28 15 N 20 30
20.07.2019 07:00:00 14,8 12,5 18 10 NNE 10 -
20.07.2019 06:00:00 12,4 10,8 0 0 N 10 -
20.07.2019 05:00:00 12,6 10,3 0 0 N 10 -
20.07.2019 04:00:00 12,8 10,4 0 0 N - -
20.07.2019 03:00:00 - - - - - - -
20.07.2019 02:00:00 12,8 11,2 0 0 N 10 -
20.07.2019 01:00:00 13,0 10,9 18 10 NNE 10 -
20.07.2019 00:00:00 13,0 11,7 0 0 N 10 -
19.07.2019 23:00:00 13,0 12,2 0 0 N 10 -
19.07.2019 22:00:00 13,0 12,1 0 0 N 10 -
19.07.2019 21:00:00 13,0 12,2 15 8 NNE - -
19.07.2019 20:00:00 14,8 14,8 18 10 NNE 10 30
19.07.2019 19:00:00 16,4 15,1 18 10 NNE 10 60
19.07.2019 18:00:00 17,4 16,6 18 10 NNE 10 60
19.07.2019 17:00:00 17,8 16,5 18 10 NNE 10 60
19.07.2019 16:00:00 17,4 13,5 11 6 NNE 10 36
19.07.2019 15:00:00 17,0 9,2 11 6 NNE 10 60
19.07.2019 14:00:00 17,2 9,9 11 6 NNE 10 30
19.07.2019 13:00:00 17,0 9,7 11 6 NNE 10 24
19.07.2019 12:00:00 17,0 12,7 18 10 NNE 10 18
19.07.2019 11:00:00 15,4 12,5 18 10 NNE 10 18
19.07.2019 10:00:00 15,0 12,7 13 7 NNE 20 60
19.07.2019 09:00:00 15,2 15,0 16 9 NNE 20 60
19.07.2019 08:00:00 14,8 14,5 9 5 NNE 20 60
19.07.2019 07:00:00 14,0 11,5 11 6 NNE 20 -
19.07.2019 06:00:00 13,0 11,4 0 0 N 15 -
19.07.2019 05:00:00 13,0 12,7 8 4 NW 15 -
19.07.2019 04:00:00 13,0 11,4 8 4 NW 15 -
19.07.2019 03:00:00 13,0 11,4 5 3 WNW 15 -
19.07.2019 02:00:00 13,0 12,1 0 0 N 15 -
19.07.2019 01:00:00 13,6 12,3 0 0 N 15 -
19.07.2019 00:00:00 13,8 11,5 0 0 N 15 -
18.07.2019 23:00:00 14,0 8,2 0 0 N 15 -
18.07.2019 22:00:00 14,0 4,6 5 3 NW 15 -
18.07.2019 21:00:00 14,0 11,2 9 5 NW 15 -
18.07.2019 20:00:00 15,0 13,2 0 0 N 15 30
18.07.2019 19:00:00 14,4 14,3 16 9 WNW 15 6
18.07.2019 18:00:00 14,4 14,3 15 8 WNW 15 0
18.07.2019 17:00:00 16,2 15,6 16 9 WNW 20 24
18.07.2019 16:00:00 16,0 15,2 21 11 WNW 20 30
18.07.2019 15:00:00 15,4 15,3 15 8 WNW 20 18
18.07.2019 14:00:00 17,2 12,7 18 10 W 20 60
18.07.2019 13:00:00 17,0 12,5 21 11 WSW 20 60
18.07.2019 12:00:00 16,6 12,0 18 10 WNW 20 60
18.07.2019 11:00:00 15,2 12,2 16 9 W 20 60
18.07.2019 10:00:00 15,4 8,9 13 7 W 20 60
18.07.2019 09:00:00 16,0 9,4 5 3 W 20 60
18.07.2019 08:00:00 15,0 8,7 0 0 N 20 60
18.07.2019 07:00:00 13,6 9,8 0 0 N 20 -
18.07.2019 06:00:00 11,2 11,2 0 0 N 10 -
18.07.2019 05:00:00 11,4 11,4 0 0 N 10 -
18.07.2019 04:00:00 11,6 11,6 8 4 W 10 -
18.07.2019 03:00:00 12,0 12,0 8 4 W - -
18.07.2019 02:00:00 12,0 12,0 8 4 W 10 -
18.07.2019 01:00:00 12,0 12,0 11 6 W 10 -
18.07.2019 00:00:00 12,0 10,4 9 5 W 10 -
17.07.2019 23:00:00 12,0 10,4 9 5 W 10 -
17.07.2019 22:00:00 12,4 12,1 11 6 W 10 -
17.07.2019 21:00:00 13,4 13,4 9 5 W 10 -
17.07.2019 20:00:00 15,2 14,2 13 7 W 10 -
17.07.2019 19:00:00 15,8 14,2 11 6 W 10 60
17.07.2019 18:00:00 16,0 14,0 9 5 NNE 10 54
17.07.2019 17:00:00 15,6 12,5 16 9 NNE 20 60
17.07.2019 16:00:00 15,6 12,2 18 10 NNE 20 60
17.07.2019 15:00:00 16,0 10,3 18 10 NNE 20 60
17.07.2019 14:00:00 14,4 8,1 26 14 NNE 20 60
17.07.2019 13:00:00 14,0 9,2 34 18 NNE 20 60
17.07.2019 12:00:00 13,0 7,7 37 20 NNE 20 60
17.07.2019 11:00:00 12,2 6,9 41 22 NNE 20 60
17.07.2019 10:00:00 12,0 7,9 44 24 NNE 20 60

tt = temperature
td = dewpoint
ff = wind speed
dd = wind direction
vv = visibility
sd = sunshine duration

Next stations